• Join FlightAware (Why Join?)
  • Login
  • US Flag 
07:39AM EDT


 

Airport Tracker/Info


-or-


 

Live Flight TrackerFlight Track Log ✈ VOZ9502 ✈ 17-Sep-2013 ✈ YBMK / MKY - YBBN / BNE

Flight Track Log - Related Links

Times and Time Zones

All times are in EDT time to prevent confusion due to time zone crossing. See the VOZ9502 flight status page for this flight to view local times or setup timezone preferences in your user account.

Time Position Orientation Groundspeed Altitude Reporting Facility
EDT Latitude Longitude Course Direction KTS MPH feet Rate Location/Type
10:50AM -21.1514 149.1669 318° Northwest 137 158 1,700  Level Aus ATC (RADAR)
10:51AM -21.1161 149.1324 318° Northwest 178 205 4,100 2,700 Climbing Aus ATC (RADAR)
10:52AM -21.1749 149.0857 216° Southwest 280 322 7,300 3,120 Climbing Aus ATC (RADAR)
10:53AM -21.2263 149.1635 125° Southeast 306 352 10,900 3,180 Climbing Aus ATC (RADAR)
10:54AM -21.3029 149.2275 142° Southeast 336 387 14,300 3,600 Climbing Aus ATC (RADAR)
10:55AM -21.3985 149.2529 166° South 355 409 18,400 3,780 Climbing Aus ATC (RADAR)
10:56AM -21.5182 149.2901 164° South 366 421 22,900 2,700 Climbing Aus ATC (RADAR)
10:57AM -21.6224 149.3346 158° South 412 474 24,600 1,980 Climbing Aus ATC (RADAR)
10:58AM -21.7567 149.3918 158° South 448 516 27,300 2,520 Climbing Aus ATC (RADAR)
10:59AM -21.8722 149.4402 159° South 444 511 30,100 2,400 Climbing Aus ATC (RADAR)
11:00AM -21.9954 149.4916 159° South 441 507 32,400 2,100 Climbing Aus ATC (RADAR)
11:02AM -22.1157 149.5562 154° Southeast 455 524 34,700 1,860 Climbing Aus ATC (RADAR)
11:02AM -22.1980 149.6090 150° Southeast 461 531 36,100 1,800 Climbing FlightAware
11:03AM -22.2265 149.6255 150° Southeast 462 532 36,500 2,160 Climbing Aus ATC (RADAR)
11:03AM -22.2710 149.6550 150° Southeast 455 524 37,500 2,460 Climbing FlightAware
11:04AM -22.3444 149.6981 150° Southeast 447 514 39,200 2,520 Climbing Aus ATC (RADAR)
11:04AM -22.3290 149.6910 150° Southeast 444 511 38,900 1,860 Descending FlightAware
11:04AM -22.4000 149.7350 150° Southeast 430 495 40,500 1,500 Climbing FlightAware
11:05AM -22.4700 149.7770 151° Southeast 428 493 41,000 360 Climbing FlightAware
11:05AM -22.5240 149.8110 150° Southeast 430 495 41,000  Level FlightAware
11:06AM -22.5800 149.8460 150° Southeast 431 496 41,000  Level FlightAware
11:07AM -22.6490 149.8890 150° Southeast 430 495 41,000  Level FlightAware
11:08AM -22.7180 149.9340 149° Southeast 430 495 41,000  Level FlightAware
11:08AM -22.8030 149.9860 151° Southeast 431 496 41,000  Level FlightAware
11:09AM -22.8580 150.0200 150° Southeast 432 497 41,000  Level FlightAware
11:09AM -22.9270 150.0640 150° Southeast 432 497 41,000  Level FlightAware
11:10AM -22.9820 150.0980 150° Southeast 431 496 41,000  Level FlightAware
11:10AM -22.9987 150.1081 150° Southeast 432 497 41,000  Level Aus ATC (RADAR)
11:10AM -23.0380 150.1330 150° Southeast 430 495 41,000  Level FlightAware
11:11AM -23.1200 150.1850 150° Southeast 430 495 41,000  Level FlightAware
11:12AM -23.1720 150.2170 151° Southeast 431 496 41,000  Level FlightAware
11:12AM -23.2350 150.2570 150° Southeast 432 497 41,000  Level FlightAware
11:13AM -23.3020 150.3000 149° Southeast 431 496 41,000  Level FlightAware
11:13AM -23.3570 150.3340 150° Southeast 431 496 41,000  Level FlightAware
11:14AM -23.4190 150.3730 150° Southeast 430 495 41,000  Level FlightAware
11:15AM -23.4790 150.4110 150° Southeast 433 498 41,000  Level FlightAware
11:15AM -23.4812 150.4128 150° Southeast 431 496 41,000  Level Aus ATC (RADAR)
11:15AM -23.5400 150.4500 150° Southeast 430 495 41,000  Level FlightAware
11:16AM -23.6040 150.4900 150° Southeast 431 496 41,000  Level FlightAware
11:16AM -23.6640 150.5290 149° Southeast 432 497 41,000  Level FlightAware
11:17AM -23.7260 150.5680 150° Southeast 435 501 41,000  Level FlightAware
11:17AM -23.7880 150.6080 149° Southeast 435 501 41,000  Level FlightAware
11:18AM -23.8500 150.6470 150° Southeast 444 511 41,000  Level FlightAware
11:19AM -23.9120 150.6870 149° Southeast 445 512 41,000  Level FlightAware
11:19AM -23.9750 150.7270 150° Southeast 447 514 41,000  Level FlightAware
11:20AM -24.0380 150.7670 150° Southeast 450 518 41,000 -180 Level FlightAware
11:20AM -24.0462 150.7718 150° Southeast 449 517 40,900  Descending Aus ATC (RADAR)
11:20AM -24.1010 150.8070 150° Southeast 452 520 41,000 60 Climbing FlightAware
11:21AM -24.1640 150.8480 149° Southeast 446 513 41,000  Level FlightAware
11:22AM -24.2280 150.8890 150° Southeast 448 516 41,000  Level FlightAware
11:22AM -24.2900 150.9290 150° Southeast 449 517 41,000  Level FlightAware
11:23AM -24.3630 150.9760 150° Southeast 449 517 41,000  Level FlightAware
11:23AM -24.4270 151.0170 150° Southeast 449 517 41,000  Level FlightAware
11:24AM -24.5003 151.0629 150° Southeast 455 524 41,000  Level Aus ATC (RADAR)
11:24AM -24.5010 151.0640 150° Southeast 449 517 41,000  Level FlightAware
11:25AM -24.5570 151.1010 149° Southeast 448 516 41,000  Level FlightAware
11:25AM -24.6110 151.1350 149° Southeast 448 516 41,000 -240 Level FlightAware
11:25AM -24.6183 151.1390 149° Southeast 453 521 40,900  Descending Aus ATC (RADAR)
11:26AM -24.6870 151.1840 150° Southeast 448 516 41,000 60 Climbing FlightAware
11:26AM -24.7520 151.2270 150° Southeast 450 518 41,000  Level FlightAware
11:26AM -24.7544 151.2267 150° Southeast 453 521 41,000  Level Aus ATC (RADAR)
11:27AM -24.8160 151.2690 149° Southeast 451 519 41,000  Level FlightAware
11:28AM -24.8800 151.3100 150° Southeast 453 521 41,000  Level FlightAware
11:28AM -24.9430 151.3510 149° Southeast 453 521 41,000  Level FlightAware
11:29AM -25.0110 151.3950 150° Southeast 461 531 41,000  Level FlightAware
11:29AM -25.0770 151.4380 149° Southeast 462 532 41,000  Level FlightAware
11:30AM -25.1330 151.4750 149° Southeast 462 532 41,000  Level FlightAware
11:30AM -25.1970 151.5130 149° Southeast 459 528 41,000  Level FlightAware
11:31AM -25.2144 151.5209 149° Southeast 456 525 41,000  Level Aus ATC (RADAR)
11:31AM -25.2640 151.5520 152° Southeast 461 531 41,000  Level FlightAware
11:32AM -25.3365 151.5938 152° Southeast 458 527 41,000  Level Aus ATC (RADAR)
11:32AM -25.3390 151.5970 152° Southeast 463 533 41,000  Level FlightAware
11:32AM -25.3970 151.6320 151° Southeast 464 534 41,000  Level FlightAware
11:33AM -25.4586 151.6692 151° Southeast 463 533 41,000  Level Aus ATC (RADAR)
11:33AM -25.4610 151.6710 151° Southeast 465 535 41,000  Level FlightAware
11:33AM -25.5380 151.7180 151° Southeast 466 536 41,000  Level FlightAware
11:34AM -25.6030 151.7570 152° Southeast 465 535 41,000  Level FlightAware
11:35AM -25.6610 151.7930 151° Southeast 465 535 41,000  Level FlightAware
11:35AM -25.7370 151.8390 151° Southeast 465 535 41,000  Level FlightAware
11:36AM -25.7940 151.8730 152° Southeast 465 535 41,000  Level FlightAware
11:36AM -25.8610 151.9140 151° Southeast 466 536 41,000  Level FlightAware
11:37AM -25.9311 151.9562 151° Southeast 464 534 41,000 -180 Level Aus ATC (RADAR)
11:37AM -25.9360 151.9600 151° Southeast 461 531 40,900 -2,700 Descending FlightAware
11:38AM -26.0030 152.0000 152° Southeast 467 537 39,300 -2,700 Descending FlightAware
11:38AM -26.0590 152.0340 151° Southeast 470 541 38,000 -2,640 Descending FlightAware
11:39AM -26.1260 152.0760 151° Southeast 471 542 36,500 -2,940 Descending FlightAware
11:39AM -26.1920 152.1160 151° Southeast 477 549 34,600 -3,300 Descending FlightAware
11:40AM -26.2710 152.1650 151° Southeast 483 556 32,400 -3,360 Descending FlightAware
11:40AM -26.3380 152.2050 152° Southeast 485 558 30,400 -3,180 Descending FlightAware
11:41AM -26.4000 152.2430 151° Southeast 479 551 29,000 -2,760 Descending FlightAware
11:41AM -26.4603 152.2790 151° Southeast 469 540 27,600 -2,700 Descending Aus ATC (RADAR)
11:42AM -26.4760 152.2910 151° Southeast 470 541 27,200 -2,820 Descending FlightAware
11:42AM -26.5330 152.3270 151° Southeast 465 535 25,800 -2,760 Descending FlightAware
11:43AM -26.5770 152.3610 145° Southeast 465 535 24,700 -2,640 Descending FlightAware
11:43AM -26.6290 152.4200 135° Southeast 459 528 23,200 -2,640 Descending FlightAware
11:44AM -26.6730 152.4700 135° Southeast 454 522 21,900 -2,400 Descending FlightAware
11:44AM -26.7230 152.5250 136° Southeast 444 511 20,600 -2,040 Descending FlightAware
11:45AM -26.7830 152.5910 136° Southeast 429 494 19,400 -2,100 Descending FlightAware
11:45AM -26.8320 152.6460 135° Southeast 426 490 18,000 -2,160 Descending FlightAware
11:46AM -26.8720 152.6910 135° Southeast 416 479 17,100 -1,980 Descending FlightAware
11:47AM -26.9293 152.7528 135° Southeast 402 463 15,700 -1,800 Descending Aus ATC (RADAR)
11:47AM -26.9280 152.7510 135° Southeast 407 468 15,900 -1,920 Climbing FlightAware
11:47AM -26.9760 152.8000 138° Southeast 403 464 14,600 -2,280 Descending FlightAware
11:48AM -27.0325 152.8412 138° Southeast 393 452 13,300 -1,800 Descending Aus ATC (RADAR)
11:48AM -27.0300 152.8390 138° Southeast 397 457 13,500 -1,200 Climbing FlightAware
11:48AM -27.0770 152.8720 148° Southeast 384 442 12,700 -1,680 Descending FlightAware
11:49AM -27.1370 152.9120 149° Southeast 367 422 11,600 -1,740 Descending FlightAware
11:49AM -27.1530 152.9200 156° South 352 405 11,300 -1,560 Descending FlightAware
11:50AM -27.1900 152.9270 170° South 312 359 10,700 -1,560 Descending FlightAware
11:50AM -27.2310 152.9270 180° South 289 333 9,900 -1,860 Descending FlightAware
11:50AM -27.2620 152.9290 177° South 285 328 9,000 -2,280 Descending FlightAware
11:51AM -27.2910 152.9300 178° South 284 327 8,200 -2,400 Descending FlightAware
11:51AM -27.3090 152.9310 177° South 287 330 7,600 -1,920 Descending FlightAware
11:51AM -27.3370 152.9330 176° South 286 329 7,100 -1,680 Descending FlightAware
11:52AM -27.3630 152.9340 178° South 284 327 6,500 -1,620 Descending FlightAware
11:52AM -27.3970 152.9360 177° South 283 326 5,900 -1,440 Descending FlightAware
11:53AM -27.4300 152.9370 178° South 281 323 5,300 -1,200 Descending FlightAware
11:53AM -27.4550 152.9380 178° South 271 312 5,000 -1,020 Descending FlightAware
11:53AM -27.4682 152.9390 178° South 273 314 4,800 -300 Descending Aus ATC (RADAR)
11:53AM -27.4770 152.9390 178° South 261 300 4,900 -360 Climbing FlightAware
11:54AM -27.5090 152.9410 177° South 253 291 4,600 -600 Descending FlightAware
11:54AM -27.5150 152.9430 164° South 254 292 4,600  Level FlightAware
11:54AM -27.5200 152.9460 152° Southeast 254 292 4,600 -420 Level FlightAware
11:54AM -27.5290 152.9540 142° Southeast 248 285 4,500 -600 Descending FlightAware
11:54AM -27.5430 152.9740 128° Southeast 232 267 4,300 -540 Descending FlightAware
11:55AM -27.5580 152.9970 126° Southeast 223 257 4,100 -720 Descending FlightAware
11:55AM -27.5610 153.0090 106° East 219 252 3,900 -1,200 Descending FlightAware
11:55AM -27.5550 153.0280 70° East 192 221 3,500 -1,200 Descending FlightAware
11:55AM -27.5480 153.0350 42° Northeast 185 213 3,300 -1,200 Descending FlightAware
11:56AM -27.5340 153.0430 27° Northeast 174 200 2,900 -900 Descending FlightAware
11:56AM -27.5200 153.0510 27° Northeast 163 188 2,700 -780 Descending FlightAware
11:56AM -27.5060 153.0590 27° Northeast 159 183 2,400 -900 Descending FlightAware
11:57AM -27.4940 153.0660 27° Northeast 153 176 2,100 -840 Descending FlightAware
11:57AM -27.4760 153.0760 26° Northeast 132 152 1,700 -720 Descending FlightAware
11:58AM -27.4660 153.0820 28° Northeast 122 140 1,500 -540 Descending FlightAware
11:58AM -27.4540 153.0890 27° Northeast 115 132 1,300 -540 Descending FlightAware
11:58AM -27.4440 153.0950 28° Northeast 117 135 1,100 -780 Descending FlightAware
11:59AM -27.4340 153.1000 24° Northeast 119 137 800 -780 Descending FlightAware
11:59AM -27.4250 153.1060 31° Northeast 124 143 600 -600 Descending FlightAware
11:59AM -27.4150 153.1110 24° Northeast 126 145 400 -720 Descending FlightAware
12:00PM -27.4010 153.1190 27° Northeast 127 146 100 -720 Descending FlightAware
12:00PM -27.3920 153.1240 26° Northeast 70 81 -300 Descending FlightAware